EST,Max TemperatureF,Mean TemperatureF,Min TemperatureF,Max Dew PointF,MeanDew PointF,Min DewpointF,Max Humidity, Mean Humidity, Min Humidity, Max Sea Level PressureIn, Mean Sea Level PressureIn, Min Sea Level PressureIn, Max VisibilityMiles, Mean VisibilityMiles, Min VisibilityMiles, Max Wind SpeedMPH, Mean Wind SpeedMPH, Max Gust SpeedMPH,PrecipitationIn, CloudCover, Events, WindDirDegrees
2013-1-1,30,26,21,25,19,11,80,73,57,30.00,29.91,29.84,10,5,2,15,9,22,0.01,8,Rain-Snow,291
2013-1-2,23,21,19,14,12,8,74,68,58,30.18,30.05,29.91,10,5,2,10,6,,0.00,8,Snow,274
2013-1-3,27,21,15,21,14,7,78,69,63,30.16,30.05,29.95,10,5,1,14,6,23,0.01,8,Rain-Snow,241
2013-1-4,30,28,26,20,16,13,75,64,50,30.11,30.03,29.95,10,7,1,17,12,26,0.00,6,Snow,255
2013-1-5,28,27,26,20,18,16,75,69,63,30.32,30.19,30.04,9,8,4,14,9,25,0.00,7,,238
2013-1-6,35,32,28,27,25,19,75,71,64,30.10,29.98,29.88,10,4,1,13,7,20,0.02,8,Snow,241
2013-1-7,34,30,26,28,23,17,82,72,63,30.40,30.25,30.09,10,7,2,18,10,22,0.06,7,Rain-Snow,269
2013-1-8,43,34,25,22,19,17,75,60,35,30.35,30.30,30.25,10,8,5,10,5,,0.00,0,,207
2013-1-9,46,35,24,33,25,17,78,61,45,30.38,30.22,30.06,10,9,2,20,6,33,0.01,2,Rain,234
2013-1-10,42,32,21,25,23,16,78,64,47,30.58,30.49,30.35,10,10,4,13,6,25,0.00,2,,295
2013-1-11,44,40,37,37,30,20,87,68,45,30.36,30.09,29.96,10,6,0,16,11,28,0.19,8,Fog-Rain,149
2013-1-12,53,46,39,48,45,36,96,88,80,30.07,30.04,30.00,10,3,0,10,5,,0.00,6,Fog,185
2013-1-13,63,54,46,51,48,44,93,79,65,29.97,29.89,29.81,10,9,3,13,6,23,0.03,6,Rain,173
2013-1-14,55,40,26,51,26,17,89,75,61,30.35,30.16,29.83,10,10,4,21,9,34,0.03,6,Rain,300
2013-1-15,30,26,23,19,16,14,85,67,54,30.38,30.27,30.14,10,10,10,7,3,,0.00,4,,12
2013-1-16,33,30,26,28,23,18,89,83,66,30.09,29.92,29.76,10,5,1,13,7,21,0.05,7,Snow,168
2013-1-17,30,26,23,24,21,15,85,75,64,30.11,30.02,29.86,10,7,0,21,9,31,0.00,8,Snow,289
2013-1-18,27,20,14,16,8,2,78,66,43,30.43,30.23,30.02,10,6,1,20,14,29,0.00,6,Snow,277
2013-1-19,45,36,28,23,16,8,50,42,35,30.15,29.98,29.75,10,10,10,17,12,30,0.00,1,,217
2013-1-20,42,30,17,26,13,6,71,61,43,30.06,29.87,29.59,10,7,0,25,16,38,0.00,8,Snow,272
2013-1-21,18,14,9,11,8,0,81,71,59,30.03,29.88,29.76,10,5,0,13,7,23,0.00,7,Snow,254
2013-1-22,9,5,1,2,-5,-8,76,67,55,30.17,29.98,29.79,10,3,0,20,11,33,0.00,8,Snow,271
2013-1-23,8,4,0,0,-4,-7,80,72,57,30.22,30.09,29.94,10,6,0,13,6,21,0.00,7,Snow,252
2013-1-24,14,5,-4,5,-1,-10,80,71,54,30.53,30.23,29.93,10,6,2,18,5,24,0.00,6,Snow,309
2013-1-25,10,4,-2,4,1,-8,83,76,58,30.47,30.11,29.91,10,5,0,10,3,,0.03,6,Snow,126
2013-1-26,21,15,9,13,9,4,84,74,65,30.41,30.16,29.94,10,6,2,13,4,,0.00,8,Snow,306
2013-1-27,27,20,12,12,11,9,88,65,51,30.53,30.45,30.35,10,9,3,8,4,,0.00,5,,195
2013-1-28,43,34,24,40,30,11,93,86,53,30.32,30.04,29.90,10,3,1,13,8,21,0.31,8,Rain-Snow,200
2013-1-29,54,46,37,50,43,35,96,91,80,30.03,29.95,29.81,10,2,0,12,6,17,0.30,7,Fog-Rain,208
2013-1-30,57,54,51,52,48,45,87,83,69,29.78,29.44,29.12,10,8,2,21,10,31,0.70,7,Rain,175
2013-1-31,48,32,17,42,17,7,85,72,53,29.75,29.44,29.11,10,2,0,28,15,38,0.18,8,Rain-Snow,264